sensor_id;sensor_type;location;lat;lon;timestamp;temperature;humidity
11826;DHT22;5970;48.094;11.496;2023-08-31T00:01:31;13.50;99.90
11826;DHT22;5970;48.094;11.496;2023-08-31T00:03:59;13.40;99.90
11826;DHT22;5970;48.094;11.496;2023-08-31T00:06:26;13.40;99.90
11826;DHT22;5970;48.094;11.496;2023-08-31T00:08:53;13.30;99.90
11826;DHT22;5970;48.094;11.496;2023-08-31T00:11:19;13.80;99.90
11826;DHT22;5970;48.094;11.496;2023-08-31T00:13:46;13.20;99.90
11826;DHT22;5970;48.094;11.496;2023-08-31T00:16:13;13.10;99.90
11826;DHT22;5970;48.094;11.496;2023-08-31T00:18:40;13.10;99.90
11826;DHT22;5970;48.094;11.496;2023-08-31T00:21:07;13.00;99.90
11826;DHT22;5970;48.094;11.496;2023-08-31T00:23:36;12.90;99.90
11826;DHT22;5970;48.094;11.496;2023-08-31T00:26:03;13.00;99.90
11826;DHT22;5970;48.094;11.496;2023-08-31T00:28:31;13.00;99.90
11826;DHT22;5970;48.094;11.496;2023-08-31T00:31:00;13.00;99.90
11826;DHT22;5970;48.094;11.496;2023-08-31T00:33:27;13.00;99.90
11826;DHT22;5970;48.094;11.496;2023-08-31T00:35:54;13.10;99.90
11826;DHT22;5970;48.094;11.496;2023-08-31T00:38:22;13.00;99.90
11826;DHT22;5970;48.094;11.496;2023-08-31T00:40:49;13.00;99.90
11826;DHT22;5970;48.094;11.496;2023-08-31T00:43:16;13.00;99.90
11826;DHT22;5970;48.094;11.496;2023-08-31T00:45:45;13.30;99.90
11826;DHT22;5970;48.094;11.496;2023-08-31T00:48:12;13.00;99.90
11826;DHT22;5970;48.094;11.496;2023-08-31T00:50:41;13.30;99.90
11826;DHT22;5970;48.094;11.496;2023-08-31T00:53:07;13.00;99.90
11826;DHT22;5970;48.094;11.496;2023-08-31T00:55:35;13.00;99.90
11826;DHT22;5970;48.094;11.496;2023-08-31T00:58:02;13.00;99.90
11826;DHT22;5970;48.094;11.496;2023-08-31T01:03:21;12.90;99.90
11826;DHT22;5970;48.094;11.496;2023-08-31T01:06:00;12.90;99.90
11826;DHT22;5970;48.094;11.496;2023-08-31T01:08:30;12.90;99.90
11826;DHT22;5970;48.094;11.496;2023-08-31T01:11:15;12.90;99.90
11826;DHT22;5970;48.094;11.496;2023-08-31T01:13:48;12.80;99.90
11826;DHT22;5970;48.094;11.496;2023-08-31T01:16:16;12.80;99.90
11826;DHT22;5970;48.094;11.496;2023-08-31T01:18:43;13.00;99.90
11826;DHT22;5970;48.094;11.496;2023-08-31T01:21:11;12.70;99.90
11826;DHT22;5970;48.094;11.496;2023-08-31T01:26:12;12.60;99.90
11826;DHT22;5970;48.094;11.496;2023-08-31T01:28:39;13.90;99.90
11826;DHT22;5970;48.094;11.496;2023-08-31T01:31:06;12.60;99.90
11826;DHT22;5970;48.094;11.496;2023-08-31T01:33:33;12.60;99.90
11826;DHT22;5970;48.094;11.496;2023-08-31T01:35:59;12.60;99.90
11826;DHT22;5970;48.094;11.496;2023-08-31T01:38:28;12.60;99.90
11826;DHT22;5970;48.094;11.496;2023-08-31T01:41:05;12.60;99.90
11826;DHT22;5970;48.094;11.496;2023-08-31T01:43:33;12.70;99.90
11826;DHT22;5970;48.094;11.496;2023-08-31T01:46:00;12.80;99.90
11826;DHT22;5970;48.094;11.496;2023-08-31T01:48:26;12.90;99.90
11826;DHT22;5970;48.094;11.496;2023-08-31T01:50:53;13.00;99.90
11826;DHT22;5970;48.094;11.496;2023-08-31T01:53:20;13.00;99.90
11826;DHT22;5970;48.094;11.496;2023-08-31T01:55:46;13.10;99.90
11826;DHT22;5970;48.094;11.496;2023-08-31T01:58:13;13.10;99.90
11826;DHT22;5970;48.094;11.496;2023-08-31T02:00:40;13.20;99.90
11826;DHT22;5970;48.094;11.496;2023-08-31T02:03:06;13.20;99.90
11826;DHT22;5970;48.094;11.496;2023-08-31T02:05:34;13.20;99.90
11826;DHT22;5970;48.094;11.496;2023-08-31T02:08:01;13.40;99.90
11826;DHT22;5970;48.094;11.496;2023-08-31T02:10:28;13.30;99.90
11826;DHT22;5970;48.094;11.496;2023-08-31T02:12:56;13.30;99.90
11826;DHT22;5970;48.094;11.496;2023-08-31T02:15:23;13.40;99.90
11826;DHT22;5970;48.094;11.496;2023-08-31T02:17:49;13.50;99.90
11826;DHT22;5970;48.094;11.496;2023-08-31T02:20:16;13.50;99.90
11826;DHT22;5970;48.094;11.496;2023-08-31T02:22:43;13.50;99.90
11826;DHT22;5970;48.094;11.496;2023-08-31T02:25:09;13.60;99.90
11826;DHT22;5970;48.094;11.496;2023-08-31T02:27:36;13.60;99.90
11826;DHT22;5970;48.094;11.496;2023-08-31T02:30:03;13.70;99.90
11826;DHT22;5970;48.094;11.496;2023-08-31T02:32:31;13.70;99.90
11826;DHT22;5970;48.094;11.496;2023-08-31T02:34:58;13.60;99.90
11826;DHT22;5970;48.094;11.496;2023-08-31T02:37:25;13.60;99.90
11826;DHT22;5970;48.094;11.496;2023-08-31T02:39:51;13.50;99.90
11826;DHT22;5970;48.094;11.496;2023-08-31T02:42:18;13.20;99.90
11826;DHT22;5970;48.094;11.496;2023-08-31T02:44:45;13.30;99.90
11826;DHT22;5970;48.094;11.496;2023-08-31T02:47:11;13.30;99.90
11826;DHT22;5970;48.094;11.496;2023-08-31T02:49:38;13.20;99.90
11826;DHT22;5970;48.094;11.496;2023-08-31T02:52:05;13.20;99.90
11826;DHT22;5970;48.094;11.496;2023-08-31T02:54:31;13.30;99.90
11826;DHT22;5970;48.094;11.496;2023-08-31T02:56:58;13.30;99.90
11826;DHT22;5970;48.094;11.496;2023-08-31T02:59:25;13.20;99.90
11826;DHT22;5970;48.094;11.496;2023-08-31T03:01:51;13.30;99.90
11826;DHT22;5970;48.094;11.496;2023-08-31T03:04:18;13.00;99.90
11826;DHT22;5970;48.094;11.496;2023-08-31T03:06:45;13.40;99.90
11826;DHT22;5970;48.094;11.496;2023-08-31T03:09:12;13.00;99.90
11826;DHT22;5970;48.094;11.496;2023-08-31T03:11:40;12.90;99.90
11826;DHT22;5970;48.094;11.496;2023-08-31T03:14:07;13.00;99.90
11826;DHT22;5970;48.094;11.496;2023-08-31T03:16:35;12.90;99.90
11826;DHT22;5970;48.094;11.496;2023-08-31T03:19:02;13.90;99.90
11826;DHT22;5970;48.094;11.496;2023-08-31T03:21:29;12.90;99.90
11826;DHT22;5970;48.094;11.496;2023-08-31T03:23:56;12.80;99.90
11826;DHT22;5970;48.094;11.496;2023-08-31T03:26:22;12.90;99.90
11826;DHT22;5970;48.094;11.496;2023-08-31T03:28:49;12.80;99.90
11826;DHT22;5970;48.094;11.496;2023-08-31T03:31:16;12.90;99.90
11826;DHT22;5970;48.094;11.496;2023-08-31T03:33:43;12.80;99.90
11826;DHT22;5970;48.094;11.496;2023-08-31T03:36:09;12.90;99.90
11826;DHT22;5970;48.094;11.496;2023-08-31T03:38:36;12.80;99.90
11826;DHT22;5970;48.094;11.496;2023-08-31T03:41:04;12.80;99.90
11826;DHT22;5970;48.094;11.496;2023-08-31T03:43:31;12.90;99.90
11826;DHT22;5970;48.094;11.496;2023-08-31T03:45:58;12.80;99.90
11826;DHT22;5970;48.094;11.496;2023-08-31T03:48:25;12.90;99.90
11826;DHT22;5970;48.094;11.496;2023-08-31T03:50:52;12.90;99.90
11826;DHT22;5970;48.094;11.496;2023-08-31T03:53:19;12.70;99.90
11826;DHT22;5970;48.094;11.496;2023-08-31T03:55:46;12.80;99.90
11826;DHT22;5970;48.094;11.496;2023-08-31T03:58:13;12.80;99.90
11826;DHT22;5970;48.094;11.496;2023-08-31T04:00:39;12.80;99.90
11826;DHT22;5970;48.094;11.496;2023-08-31T04:03:06;12.90;99.90
11826;DHT22;5970;48.094;11.496;2023-08-31T04:05:33;12.90;99.90
11826;DHT22;5970;48.094;11.496;2023-08-31T04:08:00;13.10;99.90
11826;DHT22;5970;48.094;11.496;2023-08-31T04:10:27;13.10;99.90
11826;DHT22;5970;48.094;11.496;2023-08-31T04:12:55;13.10;99.90
11826;DHT22;5970;48.094;11.496;2023-08-31T04:15:22;13.00;99.90
11826;DHT22;5970;48.094;11.496;2023-08-31T04:17:49;13.00;99.90
11826;DHT22;5970;48.094;11.496;2023-08-31T04:20:19;12.90;99.90
11826;DHT22;5970;48.094;11.496;2023-08-31T04:22:45;12.90;99.90
11826;DHT22;5970;48.094;11.496;2023-08-31T04:25:12;12.90;99.90
11826;DHT22;5970;48.094;11.496;2023-08-31T04:27:39;13.00;99.90
11826;DHT22;5970;48.094;11.496;2023-08-31T04:30:07;12.90;99.90
11826;DHT22;5970;48.094;11.496;2023-08-31T04:32:34;13.00;99.90
11826;DHT22;5970;48.094;11.496;2023-08-31T04:35:05;12.90;99.90
11826;DHT22;5970;48.094;11.496;2023-08-31T04:37:32;13.00;99.90
11826;DHT22;5970;48.094;11.496;2023-08-31T04:39:58;13.00;99.90
11826;DHT22;5970;48.094;11.496;2023-08-31T04:42:25;13.10;99.90
11826;DHT22;5970;48.094;11.496;2023-08-31T04:44:52;13.10;99.90
11826;DHT22;5970;48.094;11.496;2023-08-31T04:47:18;13.00;99.90
11826;DHT22;5970;48.094;11.496;2023-08-31T04:49:45;13.10;99.90
11826;DHT22;5970;48.094;11.496;2023-08-31T04:52:12;13.00;99.90
11826;DHT22;5970;48.094;11.496;2023-08-31T04:54:38;13.10;99.90
11826;DHT22;5970;48.094;11.496;2023-08-31T04:57:05;13.10;99.90
11826;DHT22;5970;48.094;11.496;2023-08-31T04:59:33;13.10;99.90
11826;DHT22;5970;48.094;11.496;2023-08-31T05:02:00;13.20;99.90
11826;DHT22;5970;48.094;11.496;2023-08-31T05:04:27;13.20;99.90
11826;DHT22;5970;48.094;11.496;2023-08-31T05:06:55;14.10;99.90
11826;DHT22;5970;48.094;11.496;2023-08-31T05:09:23;13.30;99.90
11826;DHT22;5970;48.094;11.496;2023-08-31T05:11:50;14.80;99.90
11826;DHT22;5970;48.094;11.496;2023-08-31T05:14:17;13.40;99.90
11826;DHT22;5970;48.094;11.496;2023-08-31T05:16:44;13.50;99.90
11826;DHT22;5970;48.094;11.496;2023-08-31T05:19:11;14.50;99.90
11826;DHT22;5970;48.094;11.496;2023-08-31T05:21:38;13.70;99.90
11826;DHT22;5970;48.094;11.496;2023-08-31T05:24:05;13.80;99.90
11826;DHT22;5970;48.094;11.496;2023-08-31T05:26:31;13.80;99.90
11826;DHT22;5970;48.094;11.496;2023-08-31T05:28:58;13.80;99.90
11826;DHT22;5970;48.094;11.496;2023-08-31T05:31:25;13.80;99.90
11826;DHT22;5970;48.094;11.496;2023-08-31T05:33:52;13.90;99.90
11826;DHT22;5970;48.094;11.496;2023-08-31T05:36:19;13.90;99.90
11826;DHT22;5970;48.094;11.496;2023-08-31T05:38:45;13.90;99.90
11826;DHT22;5970;48.094;11.496;2023-08-31T05:41:12;13.80;99.90
11826;DHT22;5970;48.094;11.496;2023-08-31T05:43:38;13.90;99.90
11826;DHT22;5970;48.094;11.496;2023-08-31T05:46:08;13.90;99.90
11826;DHT22;5970;48.094;11.496;2023-08-31T05:48:35;14.00;99.90
11826;DHT22;5970;48.094;11.496;2023-08-31T05:51:03;14.30;99.90
11826;DHT22;5970;48.094;11.496;2023-08-31T05:53:32;14.10;99.90
11826;DHT22;5970;48.094;11.496;2023-08-31T05:56:00;14.20;99.90
11826;DHT22;5970;48.094;11.496;2023-08-31T05:58:34;14.20;99.90
11826;DHT22;5970;48.094;11.496;2023-08-31T06:01:01;14.20;99.90
11826;DHT22;5970;48.094;11.496;2023-08-31T06:03:29;14.30;99.90
11826;DHT22;5970;48.094;11.496;2023-08-31T06:05:56;14.10;99.90
11826;DHT22;5970;48.094;11.496;2023-08-31T06:08:23;14.30;99.90
11826;DHT22;5970;48.094;11.496;2023-08-31T06:10:50;14.20;99.90
11826;DHT22;5970;48.094;11.496;2023-08-31T06:13:17;14.20;99.90
11826;DHT22;5970;48.094;11.496;2023-08-31T06:15:43;14.40;99.90
11826;DHT22;5970;48.094;11.496;2023-08-31T06:18:13;14.50;99.90
11826;DHT22;5970;48.094;11.496;2023-08-31T06:20:40;14.50;99.90
11826;DHT22;5970;48.094;11.496;2023-08-31T06:23:07;14.60;99.90
11826;DHT22;5970;48.094;11.496;2023-08-31T06:25:33;14.60;99.90
11826;DHT22;5970;48.094;11.496;2023-08-31T06:28:00;14.70;99.90
11826;DHT22;5970;48.094;11.496;2023-08-31T06:30:27;14.80;99.90
11826;DHT22;5970;48.094;11.496;2023-08-31T06:32:53;14.80;99.90
11826;DHT22;5970;48.094;11.496;2023-08-31T06:35:20;14.90;99.90
11826;DHT22;5970;48.094;11.496;2023-08-31T06:37:47;14.90;99.90
11826;DHT22;5970;48.094;11.496;2023-08-31T06:40:14;15.00;99.90
11826;DHT22;5970;48.094;11.496;2023-08-31T06:42:41;15.10;99.90
11826;DHT22;5970;48.094;11.496;2023-08-31T06:45:07;15.20;99.90
11826;DHT22;5970;48.094;11.496;2023-08-31T06:47:35;15.30;99.90
11826;DHT22;5970;48.094;11.496;2023-08-31T06:50:02;15.20;99.90
11826;DHT22;5970;48.094;11.496;2023-08-31T06:52:30;15.40;99.90
11826;DHT22;5970;48.094;11.496;2023-08-31T06:54:58;15.40;99.90
11826;DHT22;5970;48.094;11.496;2023-08-31T06:57:25;15.40;99.90
11826;DHT22;5970;48.094;11.496;2023-08-31T06:59:53;15.50;99.90
11826;DHT22;5970;48.094;11.496;2023-08-31T07:02:20;15.30;99.90
11826;DHT22;5970;48.094;11.496;2023-08-31T07:04:49;16.20;99.90
11826;DHT22;5970;48.094;11.496;2023-08-31T07:07:16;15.70;99.90
11826;DHT22;5970;48.094;11.496;2023-08-31T07:09:43;15.60;99.90
11826;DHT22;5970;48.094;11.496;2023-08-31T07:12:10;15.60;99.90
11826;DHT22;5970;48.094;11.496;2023-08-31T07:14:37;16.40;99.90
11826;DHT22;5970;48.094;11.496;2023-08-31T07:17:04;15.60;99.90
11826;DHT22;5970;48.094;11.496;2023-08-31T07:19:31;15.60;99.90
11826;DHT22;5970;48.094;11.496;2023-08-31T07:21:58;15.90;99.90
11826;DHT22;5970;48.094;11.496;2023-08-31T07:24:26;15.60;99.90
11826;DHT22;5970;48.094;11.496;2023-08-31T07:26:52;15.50;99.90
11826;DHT22;5970;48.094;11.496;2023-08-31T07:29:19;15.60;99.90
11826;DHT22;5970;48.094;11.496;2023-08-31T07:31:46;15.70;99.90
11826;DHT22;5970;48.094;11.496;2023-08-31T07:34:13;15.90;99.90
11826;DHT22;5970;48.094;11.496;2023-08-31T07:36:39;15.80;99.90
11826;DHT22;5970;48.094;11.496;2023-08-31T07:39:06;15.80;99.90
11826;DHT22;5970;48.094;11.496;2023-08-31T07:41:33;15.80;99.90
11826;DHT22;5970;48.094;11.496;2023-08-31T07:44:00;15.70;99.90
11826;DHT22;5970;48.094;11.496;2023-08-31T07:46:30;15.60;99.90
11826;DHT22;5970;48.094;11.496;2023-08-31T07:48:57;15.60;99.90
11826;DHT22;5970;48.094;11.496;2023-08-31T07:51:24;15.80;99.90
11826;DHT22;5970;48.094;11.496;2023-08-31T07:53:52;15.90;99.90
11826;DHT22;5970;48.094;11.496;2023-08-31T07:56:19;16.00;99.90
11826;DHT22;5970;48.094;11.496;2023-08-31T07:58:46;16.30;99.90
11826;DHT22;5970;48.094;11.496;2023-08-31T08:01:12;16.80;99.90
11826;DHT22;5970;48.094;11.496;2023-08-31T08:03:39;17.00;99.90
11826;DHT22;5970;48.094;11.496;2023-08-31T08:06:06;17.30;99.90
11826;DHT22;5970;48.094;11.496;2023-08-31T08:08:33;17.50;99.90
11826;DHT22;5970;48.094;11.496;2023-08-31T08:11:00;18.00;99.90
11826;DHT22;5970;48.094;11.496;2023-08-31T08:13:26;18.00;99.90
11826;DHT22;5970;48.094;11.496;2023-08-31T08:15:53;18.10;99.90
11826;DHT22;5970;48.094;11.496;2023-08-31T08:18:20;18.00;99.90
11826;DHT22;5970;48.094;11.496;2023-08-31T08:20:47;18.10;99.90
11826;DHT22;5970;48.094;11.496;2023-08-31T08:23:13;18.00;99.90
11826;DHT22;5970;48.094;11.496;2023-08-31T08:25:41;18.10;99.90
11826;DHT22;5970;48.094;11.496;2023-08-31T08:28:07;17.70;99.90
11826;DHT22;5970;48.094;11.496;2023-08-31T08:30:34;17.40;99.90
11826;DHT22;5970;48.094;11.496;2023-08-31T08:33:01;17.30;99.90
11826;DHT22;5970;48.094;11.496;2023-08-31T08:35:27;16.70;99.90
11826;DHT22;5970;48.094;11.496;2023-08-31T08:37:54;16.30;99.90
11826;DHT22;5970;48.094;11.496;2023-08-31T08:40:21;16.30;99.90
11826;DHT22;5970;48.094;11.496;2023-08-31T08:42:47;16.30;99.90
11826;DHT22;5970;48.094;11.496;2023-08-31T08:45:15;16.50;99.90
11826;DHT22;5970;48.094;11.496;2023-08-31T08:47:43;16.40;99.90
11826;DHT22;5970;48.094;11.496;2023-08-31T08:50:11;16.20;99.90
11826;DHT22;5970;48.094;11.496;2023-08-31T08:52:38;16.40;99.90
11826;DHT22;5970;48.094;11.496;2023-08-31T08:55:05;16.70;99.90
11826;DHT22;5970;48.094;11.496;2023-08-31T08:57:32;17.10;99.90
11826;DHT22;5970;48.094;11.496;2023-08-31T08:59:59;18.70;99.90
11826;DHT22;5970;48.094;11.496;2023-08-31T09:02:25;18.00;99.90
11826;DHT22;5970;48.094;11.496;2023-08-31T09:04:52;17.80;99.90
11826;DHT22;5970;48.094;11.496;2023-08-31T09:07:21;17.60;99.90
11826;DHT22;5970;48.094;11.496;2023-08-31T09:09:49;17.70;99.90
11826;DHT22;5970;48.094;11.496;2023-08-31T09:12:16;17.80;99.90
11826;DHT22;5970;48.094;11.496;2023-08-31T09:14:43;17.70;99.90
11826;DHT22;5970;48.094;11.496;2023-08-31T09:17:10;17.80;99.90
11826;DHT22;5970;48.094;11.496;2023-08-31T09:19:37;17.80;99.90
11826;DHT22;5970;48.094;11.496;2023-08-31T09:22:03;17.70;99.90
11826;DHT22;5970;48.094;11.496;2023-08-31T09:24:39;17.50;99.90
11826;DHT22;5970;48.094;11.496;2023-08-31T09:27:06;17.40;99.90
11826;DHT22;5970;48.094;11.496;2023-08-31T09:29:33;17.10;99.90
11826;DHT22;5970;48.094;11.496;2023-08-31T09:31:59;17.10;99.90
11826;DHT22;5970;48.094;11.496;2023-08-31T09:34:32;17.20;99.90
11826;DHT22;5970;48.094;11.496;2023-08-31T09:37:03;17.40;99.90
11826;DHT22;5970;48.094;11.496;2023-08-31T09:39:37;17.50;99.90
11826;DHT22;5970;48.094;11.496;2023-08-31T09:42:05;17.60;99.90
11826;DHT22;5970;48.094;11.496;2023-08-31T09:44:32;17.80;99.90
11826;DHT22;5970;48.094;11.496;2023-08-31T09:46:59;18.00;99.90
11826;DHT22;5970;48.094;11.496;2023-08-31T09:49:26;18.30;99.90
11826;DHT22;5970;48.094;11.496;2023-08-31T09:51:52;18.30;99.90
11826;DHT22;5970;48.094;11.496;2023-08-31T09:54:20;18.80;99.90
11826;DHT22;5970;48.094;11.496;2023-08-31T09:56:49;18.60;99.50
11826;DHT22;5970;48.094;11.496;2023-08-31T09:59:16;18.80;99.80
11826;DHT22;5970;48.094;11.496;2023-08-31T10:01:46;18.80;99.80
11826;DHT22;5970;48.094;11.496;2023-08-31T10:04:13;18.80;99.90
11826;DHT22;5970;48.094;11.496;2023-08-31T10:06:40;18.80;99.90
11826;DHT22;5970;48.094;11.496;2023-08-31T10:09:07;18.30;99.90
11826;DHT22;5970;48.094;11.496;2023-08-31T10:11:43;18.00;99.90
11826;DHT22;5970;48.094;11.496;2023-08-31T10:14:11;17.90;99.90
11826;DHT22;5970;48.094;11.496;2023-08-31T10:16:41;17.70;99.90
11826;DHT22;5970;48.094;11.496;2023-08-31T10:19:10;17.70;99.90
11826;DHT22;5970;48.094;11.496;2023-08-31T10:21:37;17.50;99.90
11826;DHT22;5970;48.094;11.496;2023-08-31T10:24:05;17.40;99.90
11826;DHT22;5970;48.094;11.496;2023-08-31T10:26:33;17.60;99.90
11826;DHT22;5970;48.094;11.496;2023-08-31T10:28:59;17.60;99.90
11826;DHT22;5970;48.094;11.496;2023-08-31T10:31:32;17.80;99.90
11826;DHT22;5970;48.094;11.496;2023-08-31T10:34:04;18.00;99.90
11826;DHT22;5970;48.094;11.496;2023-08-31T10:36:38;18.10;99.90
11826;DHT22;5970;48.094;11.496;2023-08-31T10:39:15;18.10;99.90
11826;DHT22;5970;48.094;11.496;2023-08-31T10:41:51;18.20;99.90
11826;DHT22;5970;48.094;11.496;2023-08-31T10:44:19;18.20;99.90
11826;DHT22;5970;48.094;11.496;2023-08-31T10:46:46;18.20;99.90
11826;DHT22;5970;48.094;11.496;2023-08-31T10:51:41;17.70;99.90
11826;DHT22;5970;48.094;11.496;2023-08-31T10:59:22;17.30;99.90
11826;DHT22;5970;48.094;11.496;2023-08-31T11:04:22;17.70;99.90
11826;DHT22;5970;48.094;11.496;2023-08-31T11:07:11;18.10;99.90
11826;DHT22;5970;48.094;11.496;2023-08-31T11:09:36;18.30;99.90
11826;DHT22;5970;48.094;11.496;2023-08-31T11:12:03;18.30;99.90
11826;DHT22;5970;48.094;11.496;2023-08-31T11:14:30;18.40;99.90
11826;DHT22;5970;48.094;11.496;2023-08-31T11:16:56;18.30;99.90
11826;DHT22;5970;48.094;11.496;2023-08-31T11:19:23;18.20;99.90
11826;DHT22;5970;48.094;11.496;2023-08-31T11:21:50;17.90;99.90
11826;DHT22;5970;48.094;11.496;2023-08-31T11:24:17;17.70;99.90
11826;DHT22;5970;48.094;11.496;2023-08-31T11:26:44;17.60;99.90
11826;DHT22;5970;48.094;11.496;2023-08-31T11:29:10;17.30;99.90
11826;DHT22;5970;48.094;11.496;2023-08-31T11:31:37;17.10;99.90
11826;DHT22;5970;48.094;11.496;2023-08-31T11:34:05;17.30;99.90
11826;DHT22;5970;48.094;11.496;2023-08-31T11:36:33;16.90;99.90
11826;DHT22;5970;48.094;11.496;2023-08-31T11:39:00;17.30;99.90
11826;DHT22;5970;48.094;11.496;2023-08-31T11:41:30;17.70;99.90
11826;DHT22;5970;48.094;11.496;2023-08-31T11:43:56;18.50;99.90
11826;DHT22;5970;48.094;11.496;2023-08-31T11:46:23;18.40;99.90
11826;DHT22;5970;48.094;11.496;2023-08-31T11:48:51;18.70;99.90
11826;DHT22;5970;48.094;11.496;2023-08-31T11:51:18;18.70;99.90
11826;DHT22;5970;48.094;11.496;2023-08-31T11:53:45;19.00;99.90
11826;DHT22;5970;48.094;11.496;2023-08-31T11:56:12;19.80;99.90
11826;DHT22;5970;48.094;11.496;2023-08-31T11:58:41;20.80;99.10
11826;DHT22;5970;48.094;11.496;2023-08-31T12:01:29;21.70;96.90
11826;DHT22;5970;48.094;11.496;2023-08-31T12:03:56;22.00;96.30
11826;DHT22;5970;48.094;11.496;2023-08-31T12:06:23;21.80;95.90
11826;DHT22;5970;48.094;11.496;2023-08-31T12:08:49;20.90;96.60
11826;DHT22;5970;48.094;11.496;2023-08-31T12:11:18;20.90;97.50
11826;DHT22;5970;48.094;11.496;2023-08-31T12:13:44;20.30;97.80
11826;DHT22;5970;48.094;11.496;2023-08-31T12:16:12;20.60;98.10
11826;DHT22;5970;48.094;11.496;2023-08-31T12:18:39;22.30;97.50
11826;DHT22;5970;48.094;11.496;2023-08-31T12:21:06;23.90;95.30
11826;DHT22;5970;48.094;11.496;2023-08-31T12:23:32;25.20;92.70
11826;DHT22;5970;48.094;11.496;2023-08-31T12:25:59;26.10;90.20
11826;DHT22;5970;48.094;11.496;2023-08-31T12:28:25;25.90;84.30
11826;DHT22;5970;48.094;11.496;2023-08-31T12:30:53;26.70;83.80
11826;DHT22;5970;48.094;11.496;2023-08-31T12:33:20;26.50;78.10
11826;DHT22;5970;48.094;11.496;2023-08-31T12:35:48;26.20;77.50
11826;DHT22;5970;48.094;11.496;2023-08-31T12:38:14;25.30;79.60
11826;DHT22;5970;48.094;11.496;2023-08-31T12:40:41;24.90;79.40
11826;DHT22;5970;48.094;11.496;2023-08-31T12:43:08;25.10;81.30
11826;DHT22;5970;48.094;11.496;2023-08-31T12:45:36;24.10;84.70
11826;DHT22;5970;48.094;11.496;2023-08-31T12:48:03;24.10;83.80
11826;DHT22;5970;48.094;11.496;2023-08-31T12:50:30;23.90;85.80
11826;DHT22;5970;48.094;11.496;2023-08-31T12:52:57;23.40;85.30
11826;DHT22;5970;48.094;11.496;2023-08-31T12:55:25;22.90;84.20
11826;DHT22;5970;48.094;11.496;2023-08-31T12:57:51;22.40;85.20
11826;DHT22;5970;48.094;11.496;2023-08-31T13:00:18;23.50;83.30
11826;DHT22;5970;48.094;11.496;2023-08-31T13:02:45;24.20;84.00
11826;DHT22;5970;48.094;11.496;2023-08-31T13:05:12;24.60;81.50
11826;DHT22;5970;48.094;11.496;2023-08-31T13:07:39;24.70;83.90
11826;DHT22;5970;48.094;11.496;2023-08-31T13:10:05;23.50;82.70
11826;DHT22;5970;48.094;11.496;2023-08-31T13:12:33;23.80;84.50
11826;DHT22;5970;48.094;11.496;2023-08-31T13:15:00;23.10;84.80
11826;DHT22;5970;48.094;11.496;2023-08-31T13:17:27;22.70;84.60
11826;DHT22;5970;48.094;11.496;2023-08-31T13:19:54;22.90;86.30
11826;DHT22;5970;48.094;11.496;2023-08-31T13:22:21;22.40;88.50
11826;DHT22;5970;48.094;11.496;2023-08-31T13:24:47;22.00;89.50
11826;DHT22;5970;48.094;11.496;2023-08-31T13:27:14;21.60;90.30
11826;DHT22;5970;48.094;11.496;2023-08-31T13:29:41;20.90;90.40
11826;DHT22;5970;48.094;11.496;2023-08-31T13:32:08;20.90;91.50
11826;DHT22;5970;48.094;11.496;2023-08-31T13:34:35;21.00;91.20
11826;DHT22;5970;48.094;11.496;2023-08-31T13:37:01;21.40;90.90
11826;DHT22;5970;48.094;11.496;2023-08-31T13:39:31;22.60;91.40
11826;DHT22;5970;48.094;11.496;2023-08-31T13:41:58;23.50;86.40
11826;DHT22;5970;48.094;11.496;2023-08-31T13:44:24;23.30;86.30
11826;DHT22;5970;48.094;11.496;2023-08-31T13:46:51;24.40;85.40
11826;DHT22;5970;48.094;11.496;2023-08-31T13:49:17;25.00;80.70
11826;DHT22;5970;48.094;11.496;2023-08-31T13:51:44;26.40;80.80
11826;DHT22;5970;48.094;11.496;2023-08-31T13:54:12;25.90;77.40
11826;DHT22;5970;48.094;11.496;2023-08-31T13:56:38;25.20;78.00
11826;DHT22;5970;48.094;11.496;2023-08-31T13:59:05;25.00;77.90
11826;DHT22;5970;48.094;11.496;2023-08-31T14:01:33;23.60;79.30
11826;DHT22;5970;48.094;11.496;2023-08-31T14:04:00;24.10;80.10
11826;DHT22;5970;48.094;11.496;2023-08-31T14:06:27;25.10;76.70
11826;DHT22;5970;48.094;11.496;2023-08-31T14:08:54;24.80;75.30
11826;DHT22;5970;48.094;11.496;2023-08-31T14:11:21;22.80;80.90
11826;DHT22;5970;48.094;11.496;2023-08-31T14:13:47;22.40;80.10
11826;DHT22;5970;48.094;11.496;2023-08-31T14:16:14;21.80;81.90
11826;DHT22;5970;48.094;11.496;2023-08-31T14:18:41;21.40;84.30
11826;DHT22;5970;48.094;11.496;2023-08-31T14:21:08;21.40;85.20
11826;DHT22;5970;48.094;11.496;2023-08-31T14:23:40;21.00;85.00
11826;DHT22;5970;48.094;11.496;2023-08-31T14:26:07;20.60;85.10
11826;DHT22;5970;48.094;11.496;2023-08-31T14:28:36;20.60;86.70
11826;DHT22;5970;48.094;11.496;2023-08-31T14:31:06;20.30;86.30
11826;DHT22;5970;48.094;11.496;2023-08-31T14:33:32;19.70;86.40
11826;DHT22;5970;48.094;11.496;2023-08-31T14:35:59;19.90;88.50
11826;DHT22;5970;48.094;11.496;2023-08-31T14:38:26;20.10;89.00
11826;DHT22;5970;48.094;11.496;2023-08-31T14:40:54;20.00;87.30
11826;DHT22;5970;48.094;11.496;2023-08-31T14:43:21;20.20;89.60
11826;DHT22;5970;48.094;11.496;2023-08-31T14:45:47;20.00;88.30
11826;DHT22;5970;48.094;11.496;2023-08-31T14:48:14;19.20;88.30
11826;DHT22;5970;48.094;11.496;2023-08-31T14:50:42;19.30;89.30
11826;DHT22;5970;48.094;11.496;2023-08-31T14:53:09;19.10;88.90
11826;DHT22;5970;48.094;11.496;2023-08-31T14:55:36;19.80;90.70
11826;DHT22;5970;48.094;11.496;2023-08-31T14:58:04;19.70;89.00
11826;DHT22;5970;48.094;11.496;2023-08-31T15:00:32;20.00;90.00
11826;DHT22;5970;48.094;11.496;2023-08-31T15:02:59;20.30;88.60
11826;DHT22;5970;48.094;11.496;2023-08-31T15:05:27;19.90;87.40
11826;DHT22;5970;48.094;11.496;2023-08-31T15:07:57;20.40;87.60
11826;DHT22;5970;48.094;11.496;2023-08-31T15:10:23;20.50;88.50
11826;DHT22;5970;48.094;11.496;2023-08-31T15:12:50;20.40;87.60
11826;DHT22;5970;48.094;11.496;2023-08-31T15:15:18;20.60;88.60
11826;DHT22;5970;48.094;11.496;2023-08-31T15:17:45;20.20;87.00
11826;DHT22;5970;48.094;11.496;2023-08-31T15:20:11;20.20;89.60
11826;DHT22;5970;48.094;11.496;2023-08-31T15:22:38;20.30;87.20
11826;DHT22;5970;48.094;11.496;2023-08-31T15:25:05;20.30;87.10
11826;DHT22;5970;48.094;11.496;2023-08-31T15:27:32;20.40;88.30
11826;DHT22;5970;48.094;11.496;2023-08-31T15:29:59;20.50;89.40
11826;DHT22;5970;48.094;11.496;2023-08-31T15:32:25;20.60;87.50
11826;DHT22;5970;48.094;11.496;2023-08-31T15:34:52;20.90;87.70
11826;DHT22;5970;48.094;11.496;2023-08-31T15:37:20;20.80;88.80
11826;DHT22;5970;48.094;11.496;2023-08-31T15:39:47;20.60;87.80
11826;DHT22;5970;48.094;11.496;2023-08-31T15:42:13;19.90;87.90
11826;DHT22;5970;48.094;11.496;2023-08-31T15:44:40;19.60;87.90
11826;DHT22;5970;48.094;11.496;2023-08-31T15:47:07;19.60;88.20